Terminal Aerodrome Forecast
Issued by NWS

Home | Current Version | Previous Version | Graphics & Text | Print | Product List | Glossary Off
Versions: 1 2 3 4 5 6 7 8 9 10 11 12 13 14 15 16

617
FTUS43 KFGF 291507 AAA
TAFBJI
TAF AMD
KBJI 291507Z 2915/3012 32006KT P6SM SCT015 BKN020
     FM291600 33007KT P6SM BKN025
     FM291800 33007KT P6SM BKN045
     FM300200 VRB03KT P6SM BKN080=

USA.gov is the U.S. government's official web portal to all federal, state and local government web resources and services.